Time;durP1;ratioP1;P1;durP2;ratioP2;P2;SDS_P1;SDS_P2;PMS_P1;PMS_P2;Temp;Humidity;BMP_temperature;BMP_pressure;BME280_temperature;BME280_humidity;BME280_pressure;Samples;Min_cycle;Max_cycle;Signal;HPM_P1;HPM_P2
2022/09/02 00:00:04;;;;;;;0.3;0.3;;;;;;;18.4;80.3;101430;;;;
2022/09/02 00:01:01;;;;;;;0.3;0.3;;;;;;;18.3;81.3;101430;;;;
2022/09/02 00:02:00;;;;;;;0.3;0.3;;;;;;;18.3;81.3;101430;;;;
2022/09/02 00:03:00;;;;;;;0.3;0.3;;;;;;;18.3;81.0;101430;;;;
2022/09/02 00:04:02;;;;;;;0.3;0.3;;;;;;;18.3;81.0;101430;;;;
2022/09/02 00:05:00;;;;;;;0.3;0.3;;;;;;;18.3;81.0;101430;;;;
2022/09/02 00:06:00;;;;;;;0.3;0.3;;;;;;;18.3;81.0;101430;;;;
2022/09/02 00:07:00;;;;;;;0.3;0.3;;;;;;;18.2;82.1;101430;;;;
2022/09/02 00:08:00;;;;;;;0.3;0.3;;;;;;;18.2;82.1;101430;;;;
2022/09/02 00:09:00;;;;;;;0.3;0.3;;;;;;;18.2;81.0;101430;;;;
2022/09/02 00:10:00;;;;;;;0.3;0.3;;;;;;;18.2;81.0;101430;;;;
2022/09/02 00:11:01;;;;;;;0.3;0.3;;;;;;;18.4;79.9;101430;;;;
2022/09/02 00:12:00;;;;;;;0.3;0.3;;;;;;;18.4;79.9;101430;;;;
2022/09/02 00:13:00;;;;;;;0.3;0.3;;;;;;;18.4;80.7;101430;;;;
2022/09/02 00:14:03;;;;;;;0.3;0.3;;;;;;;18.4;80.7;101430;;;;
2022/09/02 00:15:00;;;;;;;0.3;0.3;;;;;;;18.3;81.6;101430;;;;
2022/09/02 00:16:00;;;;;;;0.2;0.2;;;;;;;18.3;81.6;101430;;;;
2022/09/02 00:17:00;;;;;;;0.2;0.2;;;;;;;18.3;79.7;101430;;;;
2022/09/02 00:18:00;;;;;;;0.2;0.2;;;;;;;18.3;79.7;101430;;;;
2022/09/02 00:19:01;;;;;;;0.2;0.2;;;;;;;18.3;80.1;101430;;;;
2022/09/02 00:20:00;;;;;;;0.2;0.2;;;;;;;18.3;80.1;101430;;;;
2022/09/02 00:21:00;;;;;;;0.2;0.2;;;;;;;18.2;81.2;101420;;;;
2022/09/02 00:22:01;;;;;;;0.2;0.2;;;;;;;18.2;81.2;101420;;;;
2022/09/02 00:23:00;;;;;;;0.2;0.2;;;;;;;18.1;81.4;101420;;;;
2022/09/02 00:24:01;;;;;;;0.2;0.2;;;;;;;18.1;81.4;101420;;;;
2022/09/02 00:25:00;;;;;;;0.2;0.2;;;;;;;18.2;81.6;101420;;;;
2022/09/02 00:26:00;;;;;;;0.2;0.2;;;;;;;18.2;81.6;101420;;;;
2022/09/02 00:27:00;;;;;;;0.2;0.2;;;;;;;18.1;81.9;101420;;;;
2022/09/02 00:28:00;;;;;;;0.2;0.2;;;;;;;18.1;81.9;101420;;;;
2022/09/02 00:29:00;;;;;;;0.2;0.2;;;;;;;18.1;82.8;101420;;;;
2022/09/02 00:30:00;;;;;;;0.2;0.2;;;;;;;18.1;82.8;101420;;;;
2022/09/02 00:31:00;;;;;;;0.2;0.2;;;;;;;17.9;83.3;101410;;;;
2022/09/02 00:32:00;;;;;;;0.2;0.2;;;;;;;17.9;83.3;101410;;;;
2022/09/02 00:33:00;;;;;;;0.2;0.2;;;;;;;17.9;84.5;101410;;;;
2022/09/02 00:34:00;;;;;;;0.2;0.2;;;;;;;17.9;84.5;101410;;;;
2022/09/02 00:35:00;;;;;;;0.2;0.2;;;;;;;18.0;83.3;101410;;;;
2022/09/02 00:36:01;;;;;;;0.3;0.3;;;;;;;18.0;83.3;101410;;;;
2022/09/02 00:37:00;;;;;;;0.3;0.3;;;;;;;18.0;83.2;101410;;;;
2022/09/02 00:38:00;;;;;;;0.3;0.3;;;;;;;18.0;83.2;101410;;;;
2022/09/02 00:39:00;;;;;;;0.3;0.3;;;;;;;17.9;83.8;101410;;;;
2022/09/02 00:40:00;;;;;;;0.3;0.3;;;;;;;17.9;83.8;101410;;;;
2022/09/02 00:41:01;;;;;;;0.3;0.3;;;;;;;18.0;82.3;101410;;;;
2022/09/02 00:42:00;;;;;;;0.3;0.3;;;;;;;18.0;82.3;101410;;;;
2022/09/02 00:43:00;;;;;;;0.3;0.3;;;;;;;17.9;82.4;101410;;;;
2022/09/02 00:44:02;;;;;;;0.3;0.3;;;;;;;17.9;82.4;101410;;;;
2022/09/02 00:45:01;;;;;;;0.3;0.3;;;;;;;18.0;82.9;101410;;;;
2022/09/02 00:46:00;;;;;;;0.3;0.3;;;;;;;18.0;82.9;101410;;;;
2022/09/02 00:47:00;;;;;;;0.3;0.3;;;;;;;17.8;83.6;101400;;;;
2022/09/02 00:48:00;;;;;;;0.3;0.3;;;;;;;17.8;83.6;101400;;;;
2022/09/02 00:49:00;;;;;;;0.3;0.3;;;;;;;17.8;84.3;101400;;;;
2022/09/02 00:50:00;;;;;;;0.3;0.3;;;;;;;17.8;84.3;101400;;;;
2022/09/02 00:51:02;;;;;;;0.3;0.3;;;;;;;17.7;85.4;101400;;;;
2022/09/02 00:52:06;;;;;;;0.3;0.3;;;;;;;17.7;85.4;101400;;;;
2022/09/02 00:53:04;;;;;;;0.3;0.3;;;;;;;17.7;85.1;101400;;;;
2022/09/02 00:54:00;;;;;;;0.3;0.3;;;;;;;17.7;85.1;101400;;;;
2022/09/02 00:55:04;;;;;;;0.3;0.3;;;;;;;17.8;84.2;101400;;;;
2022/09/02 00:56:01;;;;;;;0.3;0.3;;;;;;;17.8;84.2;101400;;;;
2022/09/02 00:57:01;;;;;;;0.3;0.3;;;;;;;17.8;84.0;101400;;;;
2022/09/02 00:58:09;;;;;;;0.3;0.3;;;;;;;17.8;84.0;101400;;;;
2022/09/02 00:59:00;;;;;;;0.3;0.3;;;;;;;17.7;84.9;101400;;;;
2022/09/02 01:00:03;;;;;;;0.3;0.3;;;;;;;17.7;84.9;101400;;;;
2022/09/02 01:01:00;;;;;;;0.3;0.3;;;;;;;17.6;85.7;101400;;;;
2022/09/02 01:02:00;;;;;;;0.3;0.3;;;;;;;17.6;85.7;101400;;;;
2022/09/02 01:03:01;;;;;;;0.3;0.3;;;;;;;17.7;85.2;101400;;;;
2022/09/02 01:04:00;;;;;;;0.3;0.3;;;;;;;17.7;85.2;101400;;;;
2022/09/02 01:05:02;;;;;;;0.3;0.3;;;;;;;17.7;85.0;101400;;;;
2022/09/02 01:06:01;;;;;;;0.3;0.3;;;;;;;17.7;85.0;101400;;;;
2022/09/02 01:07:01;;;;;;;0.3;0.3;;;;;;;17.5;85.8;101390;;;;
2022/09/02 01:08:00;;;;;;;0.3;0.3;;;;;;;17.5;85.8;101390;;;;
2022/09/02 01:09:06;;;;;;;0.3;0.3;;;;;;;17.5;86.0;101390;;;;
2022/09/02 01:10:01;;;;;;;0.3;0.3;;;;;;;17.5;86.0;101390;;;;
2022/09/02 01:11:02;;;;;;;0.3;0.3;;;;;;;17.4;86.5;101390;;;;
2022/09/02 01:12:02;;;;;;;0.3;0.3;;;;;;;17.4;86.5;101390;;;;
2022/09/02 01:13:05;;;;;;;0.3;0.3;;;;;;;17.5;87.1;101390;;;;
2022/09/02 01:14:00;;;;;;;0.3;0.3;;;;;;;17.5;87.1;101390;;;;
2022/09/02 01:15:00;;;;;;;0.3;0.3;;;;;;;17.5;86.4;101390;;;;
2022/09/02 01:16:04;;;;;;;0.3;0.3;;;;;;;17.5;86.4;101390;;;;
2022/09/02 01:17:01;;;;;;;0.3;0.3;;;;;;;17.5;86.2;101380;;;;
2022/09/02 01:18:00;;;;;;;0.3;0.3;;;;;;;17.5;86.2;101380;;;;
2022/09/02 01:19:02;;;;;;;0.3;0.3;;;;;;;17.3;87.9;101380;;;;
2022/09/02 01:20:06;;;;;;;0.3;0.3;;;;;;;17.3;87.9;101380;;;;
2022/09/02 01:21:00;;;;;;;0.3;0.3;;;;;;;17.4;87.1;101390;;;;
2022/09/02 01:22:00;;;;;;;0.3;0.3;;;;;;;17.4;87.1;101390;;;;
2022/09/02 01:23:01;;;;;;;0.3;0.3;;;;;;;17.4;87.2;101390;;;;
2022/09/02 01:24:00;;;;;;;0.3;0.3;;;;;;;17.4;87.2;101390;;;;
2022/09/02 01:25:03;;;;;;;0.3;0.3;;;;;;;17.2;88.5;101390;;;;
2022/09/02 01:26:00;;;;;;;0.3;0.3;;;;;;;17.2;88.5;101390;;;;
2022/09/02 01:27:00;;;;;;;0.3;0.3;;;;;;;17.3;88.3;101390;;;;
2022/09/02 01:28:03;;;;;;;0.3;0.3;;;;;;;17.3;88.3;101390;;;;
2022/09/02 01:29:00;;;;;;;0.3;0.3;;;;;;;17.2;88.0;101390;;;;
2022/09/02 01:30:00;;;;;;;0.3;0.3;;;;;;;17.2;88.0;101390;;;;
2022/09/02 01:31:00;;;;;;;0.3;0.3;;;;;;;17.3;87.5;101380;;;;
2022/09/02 01:32:01;;;;;;;0.3;0.3;;;;;;;17.3;87.5;101380;;;;
2022/09/02 01:33:01;;;;;;;0.3;0.3;;;;;;;17.2;89.0;101390;;;;
2022/09/02 01:34:00;;;;;;;0.3;0.3;;;;;;;17.2;89.0;101390;;;;
2022/09/02 01:35:00;;;;;;;0.3;0.3;;;;;;;17.2;88.6;101380;;;;
2022/09/02 01:36:01;;;;;;;0.3;0.3;;;;;;;17.2;88.6;101380;;;;
2022/09/02 01:37:00;;;;;;;0.3;0.3;;;;;;;17.2;88.6;101380;;;;
2022/09/02 01:38:01;;;;;;;0.3;0.3;;;;;;;17.2;88.6;101380;;;;
2022/09/02 01:39:00;;;;;;;0.3;0.3;;;;;;;17.1;88.9;101380;;;;
2022/09/02 01:40:00;;;;;;;0.3;0.3;;;;;;;17.1;88.9;101380;;;;
2022/09/02 01:41:00;;;;;;;0.3;0.3;;;;;;;17.1;89.6;101380;;;;
2022/09/02 01:42:01;;;;;;;0.3;0.3;;;;;;;17.1;89.6;101380;;;;
2022/09/02 01:43:04;;;;;;;0.3;0.3;;;;;;;17.1;89.1;101380;;;;
2022/09/02 01:44:00;;;;;;;0.3;0.3;;;;;;;17.1;89.1;101380;;;;
2022/09/02 01:45:00;;;;;;;0.3;0.3;;;;;;;17.1;88.5;101380;;;;
2022/09/02 01:46:00;;;;;;;0.3;0.3;;;;;;;17.1;88.5;101380;;;;
2022/09/02 01:47:00;;;;;;;0.3;0.3;;;;;;;17.1;87.5;101380;;;;
2022/09/02 01:48:00;;;;;;;0.3;0.3;;;;;;;17.1;87.5;101380;;;;
2022/09/02 01:49:00;;;;;;;0.3;0.3;;;;;;;17.1;89.3;101380;;;;
2022/09/02 01:50:00;;;;;;;0.3;0.3;;;;;;;17.1;89.3;101380;;;;
2022/09/02 01:51:01;;;;;;;0.3;0.3;;;;;;;17.1;87.8;101370;;;;
2022/09/02 01:52:00;;;;;;;0.3;0.3;;;;;;;17.1;87.8;101370;;;;
2022/09/02 01:53:02;;;;;;;0.3;0.3;;;;;;;17.2;87.4;101380;;;;
2022/09/02 01:54:00;;;;;;;0.3;0.3;;;;;;;17.2;87.4;101380;;;;
2022/09/02 01:55:00;;;;;;;0.3;0.3;;;;;;;17.0;88.9;101370;;;;
2022/09/02 01:56:00;;;;;;;0.3;0.3;;;;;;;17.0;88.9;101370;;;;
2022/09/02 01:57:00;;;;;;;0.3;0.3;;;;;;;17.0;88.4;101370;;;;
2022/09/02 01:58:00;;;;;;;0.3;0.3;;;;;;;17.0;88.4;101370;;;;
2022/09/02 01:59:01;;;;;;;0.3;0.3;;;;;;;17.0;88.2;101370;;;;
2022/09/02 02:00:03;;;;;;;0.3;0.3;;;;;;;17.0;88.2;101370;;;;
2022/09/02 02:01:00;;;;;;;0.3;0.3;;;;;;;17.1;86.8;101370;;;;
2022/09/02 02:02:00;;;;;;;0.3;0.3;;;;;;;17.1;86.8;101370;;;;
2022/09/02 02:03:00;;;;;;;0.3;0.3;;;;;;;17.1;87.2;101370;;;;
2022/09/02 02:04:00;;;;;;;0.3;0.3;;;;;;;17.1;87.2;101370;;;;
2022/09/02 02:05:00;;;;;;;0.3;0.3;;;;;;;17.0;88.1;101370;;;;
2022/09/02 02:06:00;;;;;;;0.3;0.3;;;;;;;17.0;88.1;101370;;;;
2022/09/02 02:07:00;;;;;;;0.3;0.3;;;;;;;16.9;89.3;101370;;;;
2022/09/02 02:08:00;;;;;;;0.3;0.3;;;;;;;16.9;89.3;101370;;;;
2022/09/02 02:09:00;;;;;;;0.3;0.3;;;;;;;16.9;89.4;101370;;;;
2022/09/02 02:10:00;;;;;;;0.3;0.3;;;;;;;16.9;89.4;101370;;;;
2022/09/02 02:11:00;;;;;;;0.3;0.3;;;;;;;16.9;89.7;101370;;;;
2022/09/02 02:12:00;;;;;;;0.3;0.3;;;;;;;16.9;89.7;101370;;;;
2022/09/02 02:13:00;;;;;;;0.3;0.3;;;;;;;16.8;90.0;101370;;;;
2022/09/02 02:14:00;;;;;;;0.3;0.3;;;;;;;16.8;90.0;101370;;;;
2022/09/02 02:15:01;;;;;;;0.3;0.3;;;;;;;16.6;91.2;101370;;;;
2022/09/02 02:16:00;;;;;;;0.5;0.5;;;;;;;16.6;91.2;101370;;;;
2022/09/02 02:17:00;;;;;;;0.5;0.5;;;;;;;16.7;91.1;101370;;;;
2022/09/02 02:18:00;;;;;;;0.5;0.5;;;;;;;16.7;91.1;101370;;;;
2022/09/02 02:19:00;;;;;;;0.5;0.5;;;;;;;16.6;90.7;101370;;;;
2022/09/02 02:20:00;;;;;;;0.5;0.5;;;;;;;16.6;90.7;101370;;;;
2022/09/02 02:21:00;;;;;;;0.5;0.5;;;;;;;16.7;90.2;101370;;;;
2022/09/02 02:22:00;;;;;;;0.5;0.5;;;;;;;16.7;90.2;101370;;;;
2022/09/02 02:23:00;;;;;;;0.5;0.5;;;;;;;16.7;90.5;101370;;;;
2022/09/02 02:24:00;;;;;;;0.5;0.5;;;;;;;16.7;90.5;101370;;;;
2022/09/02 02:25:00;;;;;;;0.5;0.5;;;;;;;16.6;90.9;101370;;;;
2022/09/02 02:26:00;;;;;;;0.5;0.5;;;;;;;16.6;90.9;101370;;;;
2022/09/02 02:27:00;;;;;;;0.5;0.5;;;;;;;16.7;89.6;101370;;;;
2022/09/02 02:28:02;;;;;;;0.5;0.5;;;;;;;16.7;89.6;101370;;;;
2022/09/02 02:29:00;;;;;;;0.5;0.5;;;;;;;16.7;90.2;101370;;;;
2022/09/02 02:30:00;;;;;;;0.5;0.5;;;;;;;16.7;90.2;101370;;;;
2022/09/02 02:31:00;;;;;;;0.5;0.5;;;;;;;16.7;90.7;101360;;;;
2022/09/02 02:32:00;;;;;;;0.5;0.5;;;;;;;16.7;90.7;101360;;;;
2022/09/02 02:33:00;;;;;;;0.5;0.5;;;;;;;16.7;89.7;101360;;;;
2022/09/02 02:34:00;;;;;;;0.5;0.5;;;;;;;16.7;89.7;101360;;;;
2022/09/02 02:35:00;;;;;;;0.5;0.5;;;;;;;16.6;89.7;101360;;;;
2022/09/02 02:36:03;;;;;;;0.4;0.4;;;;;;;16.6;89.7;101360;;;;
2022/09/02 02:37:00;;;;;;;0.4;0.4;;;;;;;16.6;90.0;101360;;;;
2022/09/02 02:38:04;;;;;;;0.4;0.4;;;;;;;16.6;90.0;101360;;;;
2022/09/02 02:39:00;;;;;;;0.4;0.4;;;;;;;16.5;91.0;101360;;;;
2022/09/02 02:40:00;;;;;;;0.4;0.4;;;;;;;16.5;91.0;101360;;;;
2022/09/02 02:41:00;;;;;;;0.4;0.4;;;;;;;16.6;91.5;101360;;;;
2022/09/02 02:42:00;;;;;;;0.4;0.4;;;;;;;16.6;91.5;101360;;;;
2022/09/02 02:43:00;;;;;;;0.4;0.4;;;;;;;16.6;91.2;101360;;;;
2022/09/02 02:44:01;;;;;;;0.4;0.4;;;;;;;16.6;91.2;101360;;;;
2022/09/02 02:45:00;;;;;;;0.4;0.4;;;;;;;16.6;90.3;101360;;;;
2022/09/02 02:46:00;;;;;;;0.4;0.4;;;;;;;16.6;90.3;101360;;;;
2022/09/02 02:47:00;;;;;;;0.4;0.4;;;;;;;16.5;93.4;101360;;;;
2022/09/02 02:48:00;;;;;;;0.4;0.4;;;;;;;16.5;93.4;101360;;;;
2022/09/02 02:49:00;;;;;;;0.4;0.4;;;;;;;16.4;92.7;101360;;;;
2022/09/02 02:50:00;;;;;;;0.4;0.4;;;;;;;16.4;92.7;101360;;;;
2022/09/02 02:51:00;;;;;;;0.4;0.4;;;;;;;16.5;91.8;101350;;;;
2022/09/02 02:52:00;;;;;;;0.4;0.4;;;;;;;16.5;91.8;101350;;;;
2022/09/02 02:53:01;;;;;;;0.4;0.4;;;;;;;16.6;91.5;101360;;;;
2022/09/02 02:54:00;;;;;;;0.4;0.4;;;;;;;16.6;91.5;101360;;;;
2022/09/02 02:55:00;;;;;;;0.3;0.3;;;;;;;16.5;91.2;101350;;;;
2022/09/02 02:56:00;;;;;;;0.3;0.3;;;;;;;16.5;91.2;101350;;;;
2022/09/02 02:57:03;;;;;;;0.3;0.3;;;;;;;16.4;93.9;101360;;;;
2022/09/02 02:58:00;;;;;;;0.3;0.3;;;;;;;16.4;93.9;101360;;;;
2022/09/02 02:59:02;;;;;;;0.3;0.3;;;;;;;16.3;93.7;101350;;;;
2022/09/02 03:00:04;;;;;;;0.3;0.3;;;;;;;16.3;93.7;101350;;;;
2022/09/02 03:01:00;;;;;;;0.3;0.3;;;;;;;16.3;94.7;101350;;;;
2022/09/02 03:02:00;;;;;;;0.3;0.3;;;;;;;16.3;94.7;101350;;;;
2022/09/02 03:03:02;;;;;;;0.3;0.3;;;;;;;16.4;94.1;101350;;;;
2022/09/02 03:04:00;;;;;;;0.3;0.3;;;;;;;16.4;94.1;101350;;;;
2022/09/02 03:05:00;;;;;;;0.3;0.3;;;;;;;16.5;91.9;101350;;;;
2022/09/02 03:06:00;;;;;;;0.3;0.3;;;;;;;16.5;91.9;101350;;;;
2022/09/02 03:07:00;;;;;;;0.3;0.3;;;;;;;16.4;92.4;101350;;;;
2022/09/02 03:08:00;;;;;;;0.3;0.3;;;;;;;16.4;92.4;101350;;;;
2022/09/02 03:09:00;;;;;;;0.3;0.3;;;;;;;16.3;93.7;101350;;;;
2022/09/02 03:10:02;;;;;;;0.3;0.3;;;;;;;16.3;93.7;101350;;;;
2022/09/02 03:11:00;;;;;;;0.3;0.3;;;;;;;16.3;93.4;101350;;;;
2022/09/02 03:12:00;;;;;;;0.3;0.3;;;;;;;16.3;93.4;101350;;;;
2022/09/02 03:13:01;;;;;;;0.3;0.3;;;;;;;16.2;94.0;101340;;;;
2022/09/02 03:14:00;;;;;;;0.3;0.3;;;;;;;16.2;94.0;101340;;;;
2022/09/02 03:15:00;;;;;;;0.3;0.3;;;;;;;16.2;95.6;101340;;;;
2022/09/02 03:16:00;;;;;;;0.3;0.3;;;;;;;16.2;95.6;101340;;;;
2022/09/02 03:17:00;;;;;;;0.3;0.3;;;;;;;16.3;95.6;101350;;;;
2022/09/02 03:18:00;;;;;;;0.3;0.3;;;;;;;16.3;95.6;101350;;;;
2022/09/02 03:19:00;;;;;;;0.3;0.3;;;;;;;16.3;93.8;101350;;;;
2022/09/02 03:20:00;;;;;;;0.3;0.3;;;;;;;16.3;93.8;101350;;;;
2022/09/02 03:21:00;;;;;;;0.3;0.3;;;;;;;16.3;93.3;101340;;;;
2022/09/02 03:22:00;;;;;;;0.3;0.3;;;;;;;16.3;93.3;101340;;;;
2022/09/02 03:23:00;;;;;;;0.3;0.3;;;;;;;16.0;96.0;101350;;;;
2022/09/02 03:24:00;;;;;;;0.3;0.3;;;;;;;16.0;96.0;101350;;;;
2022/09/02 03:25:00;;;;;;;0.3;0.3;;;;;;;16.2;94.7;101350;;;;
2022/09/02 03:26:00;;;;;;;0.3;0.3;;;;;;;16.2;94.7;101350;;;;
2022/09/02 03:27:00;;;;;;;0.3;0.3;;;;;;;16.2;95.4;101350;;;;
2022/09/02 03:28:00;;;;;;;0.3;0.3;;;;;;;16.2;95.4;101350;;;;
2022/09/02 03:29:00;;;;;;;0.3;0.3;;;;;;;16.2;94.4;101340;;;;
2022/09/02 03:30:00;;;;;;;0.3;0.3;;;;;;;16.2;94.4;101340;;;;
2022/09/02 03:31:00;;;;;;;0.3;0.3;;;;;;;16.1;95.5;101350;;;;
2022/09/02 03:32:03;;;;;;;0.3;0.3;;;;;;;16.1;95.5;101350;;;;
2022/09/02 03:33:04;;;;;;;0.3;0.3;;;;;;;16.1;96.4;101340;;;;
2022/09/02 03:34:00;;;;;;;0.3;0.3;;;;;;;16.1;96.4;101340;;;;
2022/09/02 03:35:01;;;;;;;0.3;0.3;;;;;;;16.1;95.3;101340;;;;
2022/09/02 03:36:00;;;;;;;0.3;0.3;;;;;;;16.1;95.3;101340;;;;
2022/09/02 03:37:00;;;;;;;0.3;0.3;;;;;;;16.0;97.0;101340;;;;
2022/09/02 03:38:00;;;;;;;0.3;0.3;;;;;;;16.0;97.0;101340;;;;
2022/09/02 03:39:00;;;;;;;0.3;0.3;;;;;;;15.9;97.9;101340;;;;
2022/09/02 03:40:03;;;;;;;0.3;0.3;;;;;;;15.9;97.9;101340;;;;
2022/09/02 03:41:00;;;;;;;0.3;0.3;;;;;;;15.9;98.7;101340;;;;
2022/09/02 03:42:01;;;;;;;0.3;0.3;;;;;;;15.9;98.7;101340;;;;
2022/09/02 03:43:00;;;;;;;0.3;0.3;;;;;;;15.9;97.8;101340;;;;
2022/09/02 03:44:00;;;;;;;0.3;0.3;;;;;;;15.9;97.8;101340;;;;
2022/09/02 03:45:00;;;;;;;0.3;0.3;;;;;;;15.9;97.4;101340;;;;
2022/09/02 03:46:00;;;;;;;0.3;0.3;;;;;;;15.9;97.4;101340;;;;
2022/09/02 03:47:00;;;;;;;0.3;0.3;;;;;;;15.9;98.5;101340;;;;
2022/09/02 03:48:00;;;;;;;0.3;0.3;;;;;;;15.9;98.5;101340;;;;
2022/09/02 03:49:00;;;;;;;0.3;0.3;;;;;;;16.0;97.5;101330;;;;
2022/09/02 03:50:01;;;;;;;0.3;0.3;;;;;;;16.0;97.5;101330;;;;
2022/09/02 03:51:00;;;;;;;0.3;0.3;;;;;;;15.9;97.8;101330;;;;
2022/09/02 03:52:00;;;;;;;0.3;0.3;;;;;;;15.9;97.8;101330;;;;
2022/09/02 03:53:00;;;;;;;0.3;0.3;;;;;;;16.0;96.4;101330;;;;
2022/09/02 03:54:02;;;;;;;0.3;0.3;;;;;;;16.0;96.4;101330;;;;
2022/09/02 03:55:00;;;;;;;0.4;0.4;;;;;;;15.9;99.2;101330;;;;
2022/09/02 03:56:05;;;;;;;0.4;0.4;;;;;;;15.9;99.2;101330;;;;
2022/09/02 03:57:00;;;;;;;0.4;0.4;;;;;;;15.9;99.4;101330;;;;
2022/09/02 03:58:00;;;;;;;0.4;0.4;;;;;;;15.9;99.4;101330;;;;
2022/09/02 03:59:01;;;;;;;0.4;0.4;;;;;;;15.7;100.0;101320;;;;
2022/09/02 04:00:00;;;;;;;0.4;0.4;;;;;;;15.7;100.0;101320;;;;
2022/09/02 04:01:00;;;;;;;0.4;0.4;;;;;;;15.8;100.0;101330;;;;
2022/09/02 04:02:01;;;;;;;0.4;0.4;;;;;;;15.8;100.0;101330;;;;
2022/09/02 04:03:00;;;;;;;0.4;0.4;;;;;;;15.8;100.0;101320;;;;
2022/09/02 04:04:00;;;;;;;0.4;0.4;;;;;;;15.8;100.0;101320;;;;
2022/09/02 04:05:00;;;;;;;0.4;0.4;;;;;;;15.9;100.0;101320;;;;
2022/09/02 04:06:00;;;;;;;0.4;0.4;;;;;;;15.9;100.0;101320;;;;
2022/09/02 04:07:00;;;;;;;0.4;0.4;;;;;;;15.8;100.0;101320;;;;
2022/09/02 04:08:00;;;;;;;0.4;0.4;;;;;;;15.8;100.0;101320;;;;
2022/09/02 04:09:00;;;;;;;0.4;0.4;;;;;;;15.8;99.7;101320;;;;
2022/09/02 04:10:00;;;;;;;0.4;0.4;;;;;;;15.8;99.7;101320;;;;
2022/09/02 04:11:03;;;;;;;0.4;0.4;;;;;;;15.9;99.7;101320;;;;
2022/09/02 04:12:00;;;;;;;0.4;0.4;;;;;;;15.9;99.7;101320;;;;
2022/09/02 04:13:00;;;;;;;0.4;0.4;;;;;;;15.8;99.5;101310;;;;
2022/09/02 04:14:00;;;;;;;0.4;0.4;;;;;;;15.8;99.5;101310;;;;
2022/09/02 04:15:01;;;;;;;0.4;0.4;;;;;;;15.9;99.4;101320;;;;
2022/09/02 04:16:04;;;;;;;0.4;0.4;;;;;;;15.9;99.4;101320;;;;
2022/09/02 04:17:00;;;;;;;0.4;0.4;;;;;;;15.8;99.5;101320;;;;
2022/09/02 04:18:00;;;;;;;0.4;0.4;;;;;;;15.8;99.5;101320;;;;
2022/09/02 04:19:00;;;;;;;0.4;0.4;;;;;;;15.9;98.6;101320;;;;
2022/09/02 04:20:00;;;;;;;0.4;0.4;;;;;;;15.9;98.6;101320;;;;
2022/09/02 04:21:00;;;;;;;0.4;0.4;;;;;;;15.7;100.0;101310;;;;
2022/09/02 04:22:00;;;;;;;0.4;0.4;;;;;;;15.7;100.0;101310;;;;
2022/09/02 04:23:01;;;;;;;0.4;0.4;;;;;;;15.9;99.9;101320;;;;
2022/09/02 04:24:00;;;;;;;0.4;0.4;;;;;;;15.9;99.9;101320;;;;
2022/09/02 04:25:00;;;;;;;0.4;0.4;;;;;;;15.7;100.0;101310;;;;
2022/09/02 04:26:04;;;;;;;0.4;0.4;;;;;;;15.7;100.0;101310;;;;
2022/09/02 04:27:04;;;;;;;0.4;0.4;;;;;;;15.6;100.0;101310;;;;
2022/09/02 04:28:00;;;;;;;0.4;0.4;;;;;;;15.6;100.0;101310;;;;
2022/09/02 04:29:02;;;;;;;0.4;0.4;;;;;;;15.6;100.0;101310;;;;
2022/09/02 04:30:00;;;;;;;0.4;0.4;;;;;;;15.6;100.0;101310;;;;
2022/09/02 04:31:03;;;;;;;0.4;0.4;;;;;;;15.8;100.0;101310;;;;
2022/09/02 04:32:00;;;;;;;0.4;0.4;;;;;;;15.8;100.0;101310;;;;
2022/09/02 04:33:00;;;;;;;0.4;0.4;;;;;;;15.7;100.0;101310;;;;
2022/09/02 04:34:00;;;;;;;0.4;0.4;;;;;;;15.7;100.0;101310;;;;
2022/09/02 04:35:00;;;;;;;0.4;0.4;;;;;;;15.7;100.0;101310;;;;
2022/09/02 04:36:05;;;;;;;0.4;0.4;;;;;;;15.7;100.0;101310;;;;
2022/09/02 04:37:00;;;;;;;0.4;0.4;;;;;;;15.6;100.0;101310;;;;
2022/09/02 04:38:00;;;;;;;0.4;0.4;;;;;;;15.6;100.0;101310;;;;
2022/09/02 04:39:00;;;;;;;0.4;0.4;;;;;;;15.8;100.0;101310;;;;
2022/09/02 04:40:00;;;;;;;0.4;0.4;;;;;;;15.8;100.0;101310;;;;
2022/09/02 04:41:04;;;;;;;0.4;0.4;;;;;;;15.7;100.0;101310;;;;
2022/09/02 04:42:00;;;;;;;0.4;0.4;;;;;;;15.7;100.0;101310;;;;
2022/09/02 04:43:00;;;;;;;0.4;0.4;;;;;;;15.7;100.0;101310;;;;
2022/09/02 04:44:00;;;;;;;0.4;0.4;;;;;;;15.7;100.0;101310;;;;
2022/09/02 04:45:00;;;;;;;0.4;0.4;;;;;;;15.8;100.0;101310;;;;
2022/09/02 04:46:02;;;;;;;0.4;0.4;;;;;;;15.8;100.0;101310;;;;
2022/09/02 04:47:01;;;;;;;0.4;0.4;;;;;;;15.7;100.0;101310;;;;
2022/09/02 04:48:00;;;;;;;0.4;0.4;;;;;;;15.7;100.0;101310;;;;
2022/09/02 04:49:00;;;;;;;0.4;0.4;;;;;;;15.7;100.0;101310;;;;
2022/09/02 04:50:00;;;;;;;0.4;0.4;;;;;;;15.7;100.0;101310;;;;
2022/09/02 04:51:04;;;;;;;0.4;0.4;;;;;;;15.8;100.0;101310;;;;
2022/09/02 04:52:00;;;;;;;0.4;0.4;;;;;;;15.8;100.0;101310;;;;
2022/09/02 04:53:00;;;;;;;0.4;0.4;;;;;;;15.7;100.0;101310;;;;
2022/09/02 04:54:00;;;;;;;0.4;0.4;;;;;;;15.7;100.0;101310;;;;
2022/09/02 04:55:00;;;;;;;0.3;0.3;;;;;;;15.7;100.0;101310;;;;
2022/09/02 04:56:02;;;;;;;0.3;0.3;;;;;;;15.7;100.0;101310;;;;
2022/09/02 04:57:00;;;;;;;0.3;0.3;;;;;;;15.7;100.0;101310;;;;
2022/09/02 04:58:00;;;;;;;0.3;0.3;;;;;;;15.7;100.0;101310;;;;
2022/09/02 04:59:00;;;;;;;0.3;0.3;;;;;;;15.8;100.0;101320;;;;
2022/09/02 05:00:00;;;;;;;0.3;0.3;;;;;;;15.8;100.0;101320;;;;
2022/09/02 05:01:05;;;;;;;0.3;0.3;;;;;;;15.9;100.0;101310;;;;
2022/09/02 05:02:00;;;;;;;0.3;0.3;;;;;;;15.9;100.0;101310;;;;
2022/09/02 05:03:00;;;;;;;0.3;0.3;;;;;;;15.8;100.0;101310;;;;
2022/09/02 05:04:01;;;;;;;0.3;0.3;;;;;;;15.8;100.0;101310;;;;
2022/09/02 05:05:00;;;;;;;0.3;0.3;;;;;;;15.7;100.0;101310;;;;
2022/09/02 05:06:01;;;;;;;0.3;0.3;;;;;;;15.7;100.0;101310;;;;
2022/09/02 05:07:00;;;;;;;0.3;0.3;;;;;;;15.8;100.0;101310;;;;
2022/09/02 05:08:03;;;;;;;0.3;0.3;;;;;;;15.8;100.0;101310;;;;
2022/09/02 05:09:01;;;;;;;0.3;0.3;;;;;;;15.7;100.0;101310;;;;
2022/09/02 05:10:02;;;;;;;0.3;0.3;;;;;;;15.7;100.0;101310;;;;
2022/09/02 05:11:01;;;;;;;0.3;0.3;;;;;;;15.8;100.0;101310;;;;
2022/09/02 05:12:03;;;;;;;0.3;0.3;;;;;;;15.8;100.0;101310;;;;
2022/09/02 05:13:00;;;;;;;0.3;0.3;;;;;;;15.9;100.0;101310;;;;
2022/09/02 05:14:01;;;;;;;0.3;0.3;;;;;;;15.9;100.0;101310;;;;
2022/09/02 05:15:00;;;;;;;0.5;0.5;;;;;;;15.9;100.0;101320;;;;
2022/09/02 05:16:00;;;;;;;0.5;0.5;;;;;;;15.9;100.0;101320;;;;
2022/09/02 05:17:06;;;;;;;0.5;0.5;;;;;;;16.0;100.0;101310;;;;
2022/09/02 05:18:00;;;;;;;0.5;0.5;;;;;;;16.0;100.0;101310;;;;
2022/09/02 05:19:00;;;;;;;0.5;0.5;;;;;;;16.1;100.0;101310;;;;
2022/09/02 05:20:01;;;;;;;0.5;0.5;;;;;;;16.1;100.0;101310;;;;
2022/09/02 05:21:03;;;;;;;0.5;0.5;;;;;;;16.2;99.7;101310;;;;
2022/09/02 05:22:00;;;;;;;0.5;0.5;;;;;;;16.2;99.7;101310;;;;
2022/09/02 05:23:00;;;;;;;0.5;0.5;;;;;;;16.2;100.0;101310;;;;
2022/09/02 05:24:00;;;;;;;0.5;0.5;;;;;;;16.2;100.0;101310;;;;
2022/09/02 05:25:00;;;;;;;0.5;0.5;;;;;;;16.2;99.9;101310;;;;
2022/09/02 05:26:03;;;;;;;0.5;0.5;;;;;;;16.2;99.9;101310;;;;
2022/09/02 05:27:00;;;;;;;0.5;0.5;;;;;;;16.2;100.0;101310;;;;
2022/09/02 05:28:00;;;;;;;0.5;0.5;;;;;;;16.2;100.0;101310;;;;
2022/09/02 05:29:01;;;;;;;0.5;0.5;;;;;;;16.2;100.0;101310;;;;
2022/09/02 05:30:00;;;;;;;0.5;0.5;;;;;;;16.2;100.0;101310;;;;
2022/09/02 05:31:04;;;;;;;0.5;0.5;;;;;;;16.2;99.7;101310;;;;
2022/09/02 05:32:00;;;;;;;0.5;0.5;;;;;;;16.2;99.7;101310;;;;
2022/09/02 05:33:01;;;;;;;0.5;0.5;;;;;;;16.3;99.6;101310;;;;
2022/09/02 05:34:00;;;;;;;0.5;0.5;;;;;;;16.3;99.6;101310;;;;
2022/09/02 05:35:00;;;;;;;0.5;0.5;;;;;;;16.4;99.0;101310;;;;
2022/09/02 05:36:01;;;;;;;0.5;0.5;;;;;;;16.4;99.0;101310;;;;
2022/09/02 05:37:02;;;;;;;0.5;0.5;;;;;;;16.3;100.0;101310;;;;
2022/09/02 05:38:01;;;;;;;0.5;0.5;;;;;;;16.3;100.0;101310;;;;
2022/09/02 05:39:00;;;;;;;0.5;0.5;;;;;;;16.4;100.0;101310;;;;
2022/09/02 05:40:01;;;;;;;0.5;0.5;;;;;;;16.4;100.0;101310;;;;
2022/09/02 05:41:06;;;;;;;0.5;0.5;;;;;;;16.4;100.0;101310;;;;
2022/09/02 05:42:00;;;;;;;0.5;0.5;;;;;;;16.4;100.0;101310;;;;
2022/09/02 05:43:00;;;;;;;0.5;0.5;;;;;;;16.2;100.0;101310;;;;
2022/09/02 05:44:03;;;;;;;0.5;0.5;;;;;;;16.2;100.0;101310;;;;
2022/09/02 05:45:00;;;;;;;0.5;0.5;;;;;;;16.5;100.0;101310;;;;
2022/09/02 05:46:05;;;;;;;0.5;0.5;;;;;;;16.5;100.0;101310;;;;
2022/09/02 05:47:00;;;;;;;0.5;0.5;;;;;;;16.5;100.0;101310;;;;
2022/09/02 05:49:04;;;;;;;0.5;0.5;;;;;;;16.5;100.0;101310;;;;
2022/09/02 05:49:07;;;;;;;0.5;0.5;;;;;;;16.6;100.0;101310;;;;
2022/09/02 05:50:00;;;;;;;0.5;0.5;;;;;;;16.6;100.0;101310;;;;
2022/09/02 05:51:03;;;;;;;0.5;0.5;;;;;;;16.6;100.0;101310;;;;
2022/09/02 05:52:00;;;;;;;0.5;0.5;;;;;;;16.6;100.0;101310;;;;
2022/09/02 05:53:00;;;;;;;0.5;0.5;;;;;;;16.5;100.0;101310;;;;
2022/09/02 05:54:00;;;;;;;0.5;0.5;;;;;;;16.5;100.0;101310;;;;
2022/09/02 05:55:01;;;;;;;0.4;0.4;;;;;;;16.6;99.0;101310;;;;
2022/09/02 05:56:02;;;;;;;0.4;0.4;;;;;;;16.6;99.0;101310;;;;
2022/09/02 05:57:01;;;;;;;0.4;0.4;;;;;;;16.7;99.2;101310;;;;
2022/09/02 05:58:00;;;;;;;0.4;0.4;;;;;;;16.7;99.2;101310;;;;
2022/09/02 05:59:02;;;;;;;0.4;0.4;;;;;;;17.0;98.9;101310;;;;
2022/09/02 06:00:00;;;;;;;0.4;0.4;;;;;;;17.0;98.9;101310;;;;
2022/09/02 06:01:05;;;;;;;0.4;0.4;;;;;;;16.6;100.0;101310;;;;
2022/09/02 06:02:00;;;;;;;0.4;0.4;;;;;;;16.6;100.0;101310;;;;
2022/09/02 06:03:00;;;;;;;0.4;0.4;;;;;;;16.6;100.0;101310;;;;
2022/09/02 06:04:01;;;;;;;0.4;0.4;;;;;;;16.6;100.0;101310;;;;
2022/09/02 06:05:00;;;;;;;0.4;0.4;;;;;;;16.7;100.0;101310;;;;
2022/09/02 06:06:06;;;;;;;0.4;0.4;;;;;;;16.7;100.0;101310;;;;
2022/09/02 06:07:00;;;;;;;0.4;0.4;;;;;;;16.7;99.7;101310;;;;
2022/09/02 06:08:00;;;;;;;0.4;0.4;;;;;;;16.7;99.7;101310;;;;
2022/09/02 06:09:00;;;;;;;0.4;0.4;;;;;;;16.7;100.0;101310;;;;
2022/09/02 06:10:00;;;;;;;0.4;0.4;;;;;;;16.7;100.0;101310;;;;
2022/09/02 06:11:00;;;;;;;0.4;0.4;;;;;;;16.6;100.0;101310;;;;
2022/09/02 06:12:00;;;;;;;0.4;0.4;;;;;;;16.6;100.0;101310;;;;
2022/09/02 06:13:00;;;;;;;0.4;0.4;;;;;;;16.7;100.0;101310;;;;
2022/09/02 06:14:00;;;;;;;0.4;0.4;;;;;;;16.7;100.0;101310;;;;
2022/09/02 06:15:01;;;;;;;0.4;0.4;;;;;;;16.8;99.9;101310;;;;
2022/09/02 06:16:00;;;;;;;0.4;0.4;;;;;;;16.8;99.9;101310;;;;
2022/09/02 06:17:00;;;;;;;0.4;0.4;;;;;;;16.8;99.6;101310;;;;
2022/09/02 06:18:00;;;;;;;0.4;0.4;;;;;;;16.8;99.6;101310;;;;
2022/09/02 06:19:02;;;;;;;0.4;0.4;;;;;;;16.9;100.0;101310;;;;
2022/09/02 06:20:00;;;;;;;0.4;0.4;;;;;;;16.9;100.0;101310;;;;
2022/09/02 06:21:01;;;;;;;0.4;0.4;;;;;;;17.0;99.2;101310;;;;
2022/09/02 06:22:01;;;;;;;0.4;0.4;;;;;;;17.0;99.2;101310;;;;
2022/09/02 06:23:00;;;;;;;0.4;0.4;;;;;;;17.0;98.9;101310;;;;
2022/09/02 06:24:00;;;;;;;0.4;0.4;;;;;;;17.0;98.9;101310;;;;
2022/09/02 06:25:00;;;;;;;0.4;0.4;;;;;;;17.0;99.3;101310;;;;
2022/09/02 06:26:00;;;;;;;0.4;0.4;;;;;;;17.0;99.3;101310;;;;
2022/09/02 06:27:00;;;;;;;0.4;0.4;;;;;;;17.2;98.9;101320;;;;